Terminal Aerodrome Forecast
Issued by NWS

Home | Current Version | Previous Version | Text Only | Print | Product List | Glossary On
Versions: 1 2 3 4 5 6 7 8 9 10 11 12 13 14 15 16 17 18 19
000
FTUS46 KPDT 021738
TAFBDN
TAF
KBDN 021738Z 0218/0318 20010KT P6SM SCT050 BKN150
     FM022200 21010KT 6SM -SHRASN BR SCT030 OVC045
     FM030200 21011KT P6SM OVC035
     FM031500 20006KT P6SM SCT035 BKN120=

USA.gov is the U.S. government's official web portal to all federal, state and local government web resources and services.